Wetterdaten: Dienstag, 12.05.2015
Datum Zeit Temp. A. Feuchte A. Luftdruck Regen Wind Richtung Richtung Sonnenschein ET UV Solar Taupunkt Windchill Windben Empfang
12.05.2015 00:00 11,6 C 61 % 1024,6 hPa 0,0 l/m 0,0 km/h (0 Bft) SO 134 0 min 0,000 mm 0,0 UV-I 0 W/m 4,3 C 11,6 C 0,0 km/h (0 Bft) 0,00 %
12.05.2015 00:15 11,5 C 59 % 1024,6 hPa 0,0 l/m 4,0 km/h (1 Bft) SO 128 0 min 0,000 mm 0,0 UV-I 0 W/m 3,8 C 11,5 C 4,0 km/h (1 Bft) 0,00 %
12.05.2015 00:30 11,5 C 60 % 1024,5 hPa 0,0 l/m 0,0 km/h (0 Bft) S 176 0 min 0,000 mm 0,0 UV-I 0 W/m 4,0 C 11,5 C 0,0 km/h (0 Bft) 0,00 %
12.05.2015 00:45 10,9 C 65 % 1024,7 hPa 0,0 l/m 0,0 km/h (0 Bft) S-SO 157 0 min 0,000 mm 0,0 UV-I 0 W/m 4,6 C 10,9 C 0,0 km/h (0 Bft) 0,00 %
12.05.2015 01:00 10,4 C 63 % 1024,5 hPa 0,0 l/m 0,0 km/h (0 Bft) S-SO 162 0 min 0,000 mm 0,0 UV-I 0 W/m 3,7 C 10,4 C 0,0 km/h (0 Bft) 0,00 %
12.05.2015 01:15 11,0 C 61 % 1024,7 hPa 0,0 l/m 0,0 km/h (0 Bft) S-SO 161 0 min 0,000 mm 0,0 UV-I 0 W/m 3,8 C 11,0 C 0,0 km/h (0 Bft) 0,00 %
12.05.2015 01:30 10,4 C 63 % 1024,5 hPa 0,0 l/m 0,0 km/h (0 Bft) SO 134 0 min 0,000 mm 0,0 UV-I 0 W/m 3,7 C 10,4 C 0,0 km/h (0 Bft) 0,00 %
12.05.2015 01:45 9,9 C 67 % 1024,3 hPa 0,0 l/m 0,0 km/h (0 Bft) S 173 0 min 0,000 mm 0,0 UV-I 0 W/m 4,1 C 9,9 C 0,0 km/h (0 Bft) 0,00 %
12.05.2015 02:00 9,4 C 71 % 1024,5 hPa 0,0 l/m 0,0 km/h (0 Bft) S 179 0 min 0,000 mm 0,0 UV-I 0 W/m 4,4 C 9,4 C 0,0 km/h (0 Bft) 0,00 %
12.05.2015 02:15 8,9 C 71 % 1024,6 hPa 0,0 l/m 0,0 km/h (0 Bft) S 179 0 min 0,000 mm 0,0 UV-I 0 W/m 3,9 C 8,9 C 0,0 km/h (0 Bft) 0,00 %
12.05.2015 02:30 8,4 C 74 % 1024,7 hPa 0,0 l/m 0,0 km/h (0 Bft) S 179 0 min 0,000 mm 0,0 UV-I 0 W/m 4,0 C 8,4 C 0,0 km/h (0 Bft) 0,00 %
12.05.2015 02:45 8,0 C 73 % 1024,4 hPa 0,0 l/m 0,0 km/h (0 Bft) S 173 0 min 0,000 mm 0,0 UV-I 0 W/m 3,5 C 8,0 C 0,0 km/h (0 Bft) 0,00 %
12.05.2015 03:00 8,1 C 73 % 1024,2 hPa 0,0 l/m 0,0 km/h (0 Bft) S 176 0 min 0,000 mm 0,0 UV-I 0 W/m 3,6 C 8,1 C 0,0 km/h (0 Bft) 0,00 %
12.05.2015 03:15 8,1 C 73 % 1024,3 hPa 0,0 l/m 0,0 km/h (0 Bft) S 174 0 min 0,000 mm 0,0 UV-I 0 W/m 3,6 C 8,1 C 0,0 km/h (0 Bft) 0,00 %
12.05.2015 03:30 7,8 C 78 % 1024,1 hPa 0,0 l/m 0,0 km/h (0 Bft) S 182 0 min 0,000 mm 0,0 UV-I 0 W/m 4,2 C 7,8 C 0,0 km/h (0 Bft) 0,00 %
12.05.2015 03:45 7,1 C 80 % 1024,2 hPa 0,0 l/m 0,0 km/h (0 Bft) S 183 0 min 0,000 mm 0,0 UV-I 0 W/m 3,9 C 7,1 C 0,0 km/h (0 Bft) 0,00 %
12.05.2015 04:00 6,7 C 84 % 1024,2 hPa 0,0 l/m 0,0 km/h (0 Bft) S 182 0 min 0,000 mm 0,0 UV-I 0 W/m 4,2 C 6,7 C 0,0 km/h (0 Bft) 0,00 %
12.05.2015 04:15 6,4 C 84 % 1024,2 hPa 0,0 l/m 0,0 km/h (0 Bft) S 189 0 min 0,000 mm 0,0 UV-I 0 W/m 3,9 C 6,4 C 0,0 km/h (0 Bft) 0,00 %
12.05.2015 04:30 6,4 C 82 % 1024,0 hPa 0,0 l/m 0,0 km/h (0 Bft) S 190 0 min 0,000 mm 0,0 UV-I 0 W/m 3,6 C 6,4 C 0,0 km/h (0 Bft) 0,00 %
12.05.2015 04:45 6,4 C 83 % 1024,2 hPa 0,0 l/m 0,0 km/h (0 Bft) S 190 0 min 0,000 mm 0,0 UV-I 0 W/m 3,7 C 6,4 C 0,0 km/h (0 Bft) 0,00 %
12.05.2015 05:00 6,2 C 84 % 1024,3 hPa 0,0 l/m 0,0 km/h (0 Bft) S 190 0 min 0,000 mm 0,0 UV-I 0 W/m 3,7 C 6,2 C 0,0 km/h (0 Bft) 0,00 %
12.05.2015 05:15 5,9 C 86 % 1024,3 hPa 0,0 l/m 0,0 km/h (0 Bft) S 190 0 min 0,000 mm 0,0 UV-I 0 W/m 3,7 C 5,9 C 0,0 km/h (0 Bft) 0,00 %
12.05.2015 05:30 5,7 C 89 % 1024,5 hPa 0,0 l/m 0,0 km/h (0 Bft) S 175 0 min 0,000 mm 0,0 UV-I 0 W/m 4,0 C 5,7 C 0,0 km/h (0 Bft) 0,00 %
12.05.2015 05:45 5,9 C 89 % 1024,3 hPa 0,0 l/m 0,0 km/h (0 Bft) S 185 15 min 0,000 mm 0,0 UV-I 25 W/m 4,2 C 5,9 C 0,0 km/h (0 Bft) 0,00 %
12.05.2015 06:00 7,0 C 85 % 1024,1 hPa 0,0 l/m 0,0 km/h (0 Bft) S 190 15 min 0,000 mm 0,0 UV-I 90 W/m 4,7 C 7,0 C 0,0 km/h (0 Bft) 0,00 %
12.05.2015 06:15 9,5 C 74 % 1023,7 hPa 0,0 l/m 0,0 km/h (0 Bft) S 187 15 min 0,000 mm 0,0 UV-I 171 W/m 5,1 C 9,5 C 0,0 km/h (0 Bft) 0,00 %
12.05.2015 06:30 11,2 C 67 % 1023,4 hPa 0,0 l/m 0,0 km/h (0 Bft) S 188 15 min 0,000 mm 1,0 UV-I 185 W/m 5,3 C 11,2 C 0,0 km/h (0 Bft) 0,00 %
12.05.2015 06:45 11,8 C 67 % 1023,3 hPa 0,0 l/m 0,0 km/h (0 Bft) S-SO 154 15 min 0,000 mm 1,0 UV-I 277 W/m 5,9 C 11,8 C 0,0 km/h (0 Bft) 0,00 %
12.05.2015 07:00 11,8 C 62 % 1023,3 hPa 0,0 l/m 1,4 km/h (1 Bft) O-SO 123 15 min 0,000 mm 1,0 UV-I 342 W/m 4,8 C 11,8 C 4,0 km/h (1 Bft) 0,00 %
12.05.2015 07:15 12,4 C 62 % 1023,3 hPa 0,0 l/m 0,0 km/h (0 Bft) S 174 15 min 0,000 mm 1,0 UV-I 327 W/m 5,3 C 12,4 C 0,0 km/h (0 Bft) 0,00 %
12.05.2015 07:30 12,4 C 61 % 1023,4 hPa 0,0 l/m 0,0 km/h (0 Bft) O-SO 111 15 min 0,000 mm 1,0 UV-I 376 W/m 5,1 C 12,4 C 0,0 km/h (0 Bft) 0,00 %
12.05.2015 07:45 12,4 C 64 % 1023,2 hPa 0,0 l/m 0,0 km/h (0 Bft) NO 40 15 min 0,000 mm 1,0 UV-I 385 W/m 5,8 C 12,4 C 0,0 km/h (0 Bft) 0,00 %
12.05.2015 08:00 13,6 C 61 % 1023,1 hPa 0,0 l/m 0,0 km/h (0 Bft) S-SW 203 15 min 0,000 mm 2,0 UV-I 344 W/m 6,2 C 13,6 C 0,0 km/h (0 Bft) 0,00 %
12.05.2015 14:00 23,0 C 45 % 1018,7 hPa 0,0 l/m 4,3 km/h (1 Bft) SO 128 60 min 0,000 mm 5,0 UV-I 814 W/m 10,4 C 23,0 C 7,9 km/h (2 Bft) 0,00 %
12.05.2015 14:15 23,4 C 43 % 1018,6 hPa 0,0 l/m 4,3 km/h (1 Bft) O-SO 102 15 min 0,000 mm 5,0 UV-I 848 W/m 10,1 C 23,4 C 7,9 km/h (2 Bft) 0,00 %
12.05.2015 14:30 24,2 C 43 % 1018,3 hPa 0,0 l/m 6,5 km/h (2 Bft) O-SO 115 15 min 0,000 mm 4,0 UV-I 784 W/m 10,8 C 24,2 C 11,9 km/h (2 Bft) 0,00 %
12.05.2015 14:45 24,4 C 41 % 1018,3 hPa 0,0 l/m 4,0 km/h (1 Bft) O-SO 121 15 min 0,000 mm 4,0 UV-I 764 W/m 10,3 C 24,4 C 4,0 km/h (1 Bft) 0,00 %
12.05.2015 15:00 24,6 C 40 % 1018,0 hPa 0,0 l/m 2,2 km/h (1 Bft) O 90 15 min 0,000 mm 4,0 UV-I 756 W/m 10,1 C 24,6 C 4,0 km/h (1 Bft) 0,00 %
12.05.2015 15:15 24,7 C 40 % 1017,9 hPa 0,0 l/m 1,4 km/h (1 Bft) S 187 15 min 0,000 mm 4,0 UV-I 752 W/m 10,2 C 24,7 C 4,0 km/h (1 Bft) 0,00 %
12.05.2015 15:30 24,8 C 37 % 1017,9 hPa 0,0 l/m 6,5 km/h (2 Bft) O-SO 103 15 min 0,000 mm 3,0 UV-I 597 W/m 9,1 C 24,8 C 7,9 km/h (2 Bft) 0,00 %
12.05.2015 15:45 24,5 C 40 % 1017,7 hPa 0,0 l/m 3,2 km/h (1 Bft) O-NO 75 15 min 0,000 mm 3,0 UV-I 566 W/m 10,0 C 24,5 C 4,0 km/h (1 Bft) 0,00 %
12.05.2015 16:00 24,5 C 42 % 1017,4 hPa 0,0 l/m 0,4 km/h (0 Bft) O-NO 68 15 min 0,000 mm 2,0 UV-I 553 W/m 10,7 C 24,5 C 4,0 km/h (1 Bft) 0,00 %
12.05.2015 16:15 24,4 C 41 % 1017,4 hPa 0,0 l/m 5,4 km/h (1 Bft) O-SO 120 15 min 0,000 mm 2,0 UV-I 671 W/m 10,3 C 24,4 C 7,9 km/h (2 Bft) 0,00 %
12.05.2015 16:30 25,2 C 39 % 1017,0 hPa 0,0 l/m 0,0 km/h (0 Bft) SO 135 15 min 0,000 mm 2,0 UV-I 665 W/m 10,2 C 25,2 C 0,0 km/h (0 Bft) 0,00 %
12.05.2015 16:45 24,8 C 38 % 1016,9 hPa 0,0 l/m 5,4 km/h (1 Bft) O 98 15 min 0,000 mm 2,0 UV-I 540 W/m 9,5 C 24,8 C 7,9 km/h (2 Bft) 0,00 %
12.05.2015 17:00 24,8 C 40 % 1016,8 hPa 0,0 l/m 0,0 km/h (0 Bft) O-SO 123 15 min 0,000 mm 2,0 UV-I 718 W/m 10,3 C 24,8 C 0,0 km/h (0 Bft) 0,00 %
12.05.2015 17:15 25,2 C 41 % 1016,4 hPa 0,0 l/m 0,0 km/h (0 Bft) O-SO 102 15 min 0,000 mm 2,0 UV-I 722 W/m 11,0 C 25,2 C 0,0 km/h (0 Bft) 0,00 %
12.05.2015 17:30 24,9 C 40 % 1016,4 hPa 0,0 l/m 0,7 km/h (0 Bft) O 88 15 min 0,000 mm 2,0 UV-I 556 W/m 10,4 C 24,9 C 4,0 km/h (1 Bft) 0,00 %
12.05.2015 17:45 24,6 C 41 % 1016,4 hPa 0,0 l/m 0,7 km/h (0 Bft) SO 131 15 min 0,000 mm 1,0 UV-I 392 W/m 10,5 C 24,6 C 4,0 km/h (1 Bft) 0,00 %
12.05.2015 18:00 24,5 C 42 % 1016,2 hPa 0,0 l/m 0,0 km/h (0 Bft) O-SO 121 15 min 0,000 mm 1,0 UV-I 426 W/m 10,7 C 24,5 C 0,0 km/h (0 Bft) 0,00 %
12.05.2015 18:15 24,6 C 42 % 1015,9 hPa 0,0 l/m 4,3 km/h (1 Bft) O-SO 107 15 min 0,000 mm 1,0 UV-I 425 W/m 10,8 C 24,6 C 7,9 km/h (2 Bft) 0,00 %
12.05.2015 18:30 24,5 C 43 % 1015,7 hPa 0,0 l/m 5,4 km/h (1 Bft) O 95 15 min 0,000 mm 1,0 UV-I 336 W/m 11,1 C 24,5 C 7,9 km/h (2 Bft) 0,00 %
12.05.2015 18:45 24,2 C 45 % 1015,4 hPa 0,0 l/m 0,0 km/h (0 Bft) O-SO 105 15 min 0,000 mm 1,0 UV-I 303 W/m 11,5 C 24,2 C 0,0 km/h (0 Bft) 0,00 %
12.05.2015 19:00 24,3 C 44 % 1015,4 hPa 0,0 l/m 0,0 km/h (0 Bft) S-SO 155 15 min 0,000 mm 1,0 UV-I 235 W/m 11,3 C 24,3 C 0,0 km/h (0 Bft) 0,00 %
12.05.2015 19:15 24,4 C 46 % 1015,3 hPa 0,0 l/m 0,0 km/h (0 Bft) O-SO 103 15 min 0,000 mm 1,0 UV-I 135 W/m 12,0 C 24,4 C 0,0 km/h (0 Bft) 0,00 %
12.05.2015 19:30 23,4 C 53 % 1015,7 hPa 0,0 l/m 0,0 km/h (0 Bft) O-SO 119 15 min 0,000 mm 1,0 UV-I 83 W/m 13,3 C 23,4 C 0,0 km/h (0 Bft) 0,00 %
12.05.2015 19:45 23,0 C 49 % 1015,4 hPa 0,0 l/m 0,0 km/h (0 Bft) O-SO 120 0 min 0,000 mm 0,0 UV-I 50 W/m 11,7 C 23,0 C 0,0 km/h (0 Bft) 0,00 %
12.05.2015 20:00 22,2 C 54 % 1015,3 hPa 0,0 l/m 0,0 km/h (0 Bft) O-SO 120 0 min 0,000 mm 0,0 UV-I 31 W/m 12,4 C 22,2 C 0,0 km/h (0 Bft) 0,00 %
12.05.2015 20:15 21,5 C 52 % 1015,4 hPa 0,0 l/m 0,0 km/h (0 Bft) O-SO 120 0 min 0,000 mm 0,0 UV-I 6 W/m 11,2 C 21,5 C 0,0 km/h (0 Bft) 0,00 %
12.05.2015 20:30 20,7 C 56 % 1015,2 hPa 0,0 l/m 0,0 km/h (0 Bft) S 179 0 min 0,000 mm 0,0 UV-I 0 W/m 11,6 C 20,7 C 0,0 km/h (0 Bft) 0,00 %
12.05.2015 20:45 20,1 C 61 % 1015,5 hPa 0,0 l/m 0,0 km/h (0 Bft) S 180 0 min 0,000 mm 0,0 UV-I 0 W/m 12,3 C 20,1 C 0,0 km/h (0 Bft) 0,00 %
12.05.2015 21:00 19,4 C 61 % 1015,4 hPa 0,0 l/m 0,0 km/h (0 Bft) S 181 0 min 0,000 mm 0,0 UV-I 0 W/m 11,7 C 19,4 C 0,0 km/h (0 Bft) 0,00 %
12.05.2015 21:15 18,8 C 64 % 1015,5 hPa 0,0 l/m 0,0 km/h (0 Bft) S 181 0 min 0,000 mm 0,0 UV-I 0 W/m 11,8 C 18,8 C 0,0 km/h (0 Bft) 0,00 %
12.05.2015 21:30 18,3 C 66 % 1015,7 hPa 0,0 l/m 0,0 km/h (0 Bft) S 181 0 min 0,000 mm 0,0 UV-I 0 W/m 11,8 C 18,3 C 0,0 km/h (0 Bft) 0,00 %
12.05.2015 21:45 18,0 C 66 % 1015,8 hPa 0,0 l/m 0,0 km/h (0 Bft) S 181 0 min 0,000 mm 0,0 UV-I 0 W/m 11,6 C 18,0 C 0,0 km/h (0 Bft) 0,00 %
12.05.2015 22:00 17,5 C 68 % 1016,0 hPa 0,0 l/m 0,0 km/h (0 Bft) S 182 0 min 0,000 mm 0,0 UV-I 0 W/m 11,5 C 17,5 C 0,0 km/h (0 Bft) 0,00 %
12.05.2015 22:15 17,0 C 71 % 1015,9 hPa 0,0 l/m 0,0 km/h (0 Bft) S 181 0 min 0,000 mm 0,0 UV-I 0 W/m 11,7 C 17,0 C 0,0 km/h (0 Bft) 0,00 %
12.05.2015 22:30 16,8 C 72 % 1015,8 hPa 0,0 l/m 0,0 km/h (0 Bft) S 181 0 min 0,000 mm 0,0 UV-I 0 W/m 11,7 C 16,8 C 0,0 km/h (0 Bft) 0,00 %
12.05.2015 22:45 16,5 C 73 % 1015,7 hPa 0,0 l/m 0,0 km/h (0 Bft) S 181 0 min 0,000 mm 0,0 UV-I 0 W/m 11,6 C 16,5 C 0,0 km/h (0 Bft) 0,00 %
12.05.2015 23:00 16,2 C 77 % 1015,9 hPa 0,0 l/m 0,0 km/h (0 Bft) S 183 0 min 0,000 mm 0,0 UV-I 0 W/m 12,2 C 16,2 C 0,0 km/h (0 Bft) 0,00 %
12.05.2015 23:15 15,8 C 79 % 1016,0 hPa 0,0 l/m 0,0 km/h (0 Bft) S-SW 208 0 min 0,000 mm 0,0 UV-I 0 W/m 12,2 C 15,8 C 0,0 km/h (0 Bft) 0,00 %
12.05.2015 23:30 15,5 C 80 % 1015,8 hPa 0,0 l/m 0,0 km/h (0 Bft) S 183 0 min 0,000 mm 0,0 UV-I 0 W/m 12,1 C 15,5 C 0,0 km/h (0 Bft) 0,00 %
12.05.2015 23:45 15,4 C 81 % 1015,7 hPa 0,0 l/m 0,0 km/h (0 Bft) S 181 0 min 0,000 mm 0,0 UV-I 0 W/m 12,2 C 15,4 C 0,0 km/h (0 Bft) 0,00 %
12.05.2015 23:55 15,1 C 82 % 1015,8 hPa 0,0 l/m 0,0 km/h (0 Bft) S 183 0 min 0,000 mm 0,0 UV-I 0 W/m 12,0 C 15,1 C 0,0 km/h (0 Bft) 0,00 %
_ Min-Zeit 05:30 15:30 20:30 - 00:00 - - - - - - 02:45 05:30 00:00 00:00
Minimum _ 5,7 C 37 % 1015,2 hPa - 0,0 km/h (0 Bft) - - - - - - 3,5 C 5,7 C 0,0 km/h (0 Bft) 0,00 %
_ Max-Zeit 16:30 05:30 00:45 00:00 14:30 - - 14:00 00:00 14:00 14:15 19:30 16:30 14:30 00:00
Maximum _ 25,2 C 89 % 1024,7 hPa 0,0 l/m 6,5 km/h
O-SO (2 Bft)
- - 60 min 0,000 mm 5,0 UV-I 848 W/m 13,3 C 25,2 C 11,9 km/h
O-SO (2 Bft)
0,00 %
Durchschnitt _ 16,8 C 60 % 1019,7 hPa #0,0 l/m 1,1 km/h (1 Bft) O-SO - #9:00 h #0,000 mm 2,6 UV-I 487 W/m 8,3 C 16,8 C 2,0 km/h (1 Bft) 0,00 %